Fyffe, AL

2:42 AM CDT on August 20, 2014 (GMT -0500)
Rock Creek Bloodhounds | Change Station
CLOSE
Current Station
Personal Weather Station
Location: Fort Payne, AL
Elevation: 1162 ft
Nearby Weather Stations

Elev 1162 ft 34.41 °N, 85.88 °W | Updated 1 second ago

Overcast
Overcast
68.7 °F
Feels Like 68.7 °F
N
14.1
Wind Variable Wind from NNW
Gusts 14.1 mph

Today
High -- | Low -- °F
--% Chance of Precip.
Yesterday
High -- | Low -- °F
Precip. -- in
6:08 AM 7:25 PM
Waning Crescent, 23% visible
Pressure 29.96 in
Visibility 1.0 miles
Clouds Overcast 100 ft
Dew Point 66 °F
Humidity 91%
Rainfall 0.00 in
Snow Depth Not available.
UV 0 out of 12
Pollen 7.40 out of 12
Air Quality Not available.
Flu Activity Not available.
METAR K4A9 200735Z AUTO 00000KT 1SM BR OVC001 20/18 A2996 RMK AO2

More Conditions Fewer Conditions

Pressure 29.96 in
Visibility 1.0 miles
Clouds Overcast 100 ft
Dew Point 66 °F
Humidity 91%
Rainfall 0.00 in
Snow Depth Not available.
UV 0 out of 12
Pollen 7.40 out of 12
Air Quality Not available.
Flu Activity Not available.
METAR K4A9 200735Z AUTO 00000KT 1SM BR OVC001 20/18 A2996 RMK AO2

More Conditions Fewer Conditions

10-Day Weather Forecast

Almanac

Astronomy

Aug. 20, 2014 Rise Set
Actual Time 6:08 AM CDT 7:25 PM CDT
Civil Twilight 5:41 AM CDT 7:51 PM CDT
Nautical Twilight 5:10 AM CDT 8:22 PM CDT
Astronomical Twilight 4:37 AM CDT 8:55 PM CDT
Moon 1:52 AM CDT 4:05 PM CDT
Length of Visible Light 14h 09m
Length of Day
13h 17m
Tomorrow will be 1m 57s shorter.
Waning Crescent, 23% of the Moon is Illuminated
Today
Waning Crescent
Aug 25
New
Sep 2
First Quarter
Sep 8
Full
Sep 15
Last Quarter

Today's Extremes

State Highs State Lows

Community

WunderPhotos

Upload Photos

1,745,592 photos uploaded!

Nearby

Snow Depth

Station Depth Elevation
No new snow has been reported.

Earthquake Activity

City Distance Mag. Time & Date
No recent earthquake activity has been reported nearby.
Minimum magnitude displayed is 2.5.

Coastal Water Temperatures

Place Temperature
No Stations Reporting

Nearby Weather Stations